Pezhoto — LZG2277 — position and weather

sailwx.info

Track history (hours):
 
Tides and Currents Weather Stations Pressure Air Temp Water Temp Dewpoint Dewpoint Depression Visibility Wind Speed Wind Dir Waves Ship Positions

Pezhoto

Last reported at 2017-Oct-26 08:20 UTC. Time now 2017-Dec-14 08:24 UTC.
Position N 44°17' E 028°05'.
Warning: this ship's position is 49 days out of date.

Length 80 m.

Type: Ship (hazmat cat D). MMSI: 207072277.

Date/timePositionNaut miles runAvg speedWind from/ knotsBaromVisibWave heightAir tempDewpointWater temp
2017-Oct-26 08:20N 44°17' E 028°05'2 6.3
2017-Oct-26 08:00N 44°16' E 028°08'3 6.5
2017-Oct-26 07:30N 44°16' E 028°12'3 6.6
2017-Oct-26 07:00N 44°15' E 028°17'3 6.5
2017-Oct-26 06:30N 44°15' E 028°21'4 6.7
2017-Oct-26 05:59N 44°11' E 028°24'8 5.9
2017-Oct-26 04:34N 44°06' E 028°33'0 6.8
2017-Oct-26 04:29N 44°06' E 028°33'3 5.9
2017-Oct-26 04:00N 44°06' E 028°37'0 0.6
2017-Oct-26 03:30N 44°06' E 028°38'0 0.1
2017-Oct-26 03:00N 44°06' E 028°38'1 2.2
2017-Oct-26 02:30N 44°06' E 028°39'0 0.0
2017-Oct-26 02:00N 44°06' E 028°39'0 0.0
2017-Oct-26 01:30N 44°06' E 028°39'0 0.0
2017-Oct-26 01:00N 44°06' E 028°39'0 0.0
2017-Oct-26 00:30N 44°06' E 028°39'0 0.0
2017-Oct-26 00:00N 44°06' E 028°39'0 0.0
2017-Oct-25 23:30N 44°06' E 028°39'0 0.0
2017-Oct-25 23:00N 44°06' E 028°39'0 0.0
2017-Oct-25 22:30N 44°06' E 028°39'0 0.0
2017-Oct-25 22:00N 44°06' E 028°39'0 0.0
2017-Oct-25 21:30N 44°06' E 028°39'0 0.0
2017-Oct-25 21:00N 44°06' E 028°39'0 0.0
2017-Oct-25 20:30N 44°06' E 028°39'0 0.0
2017-Oct-25 20:00N 44°06' E 028°39'0 0.0
2017-Oct-25 19:30N 44°06' E 028°39'0 0.0
2017-Oct-25 19:00N 44°06' E 028°39'0 0.0
2017-Oct-25 18:30N 44°06' E 028°39'0 0.0
2017-Oct-25 18:00N 44°06' E 028°39'0 0.0
2017-Oct-25 17:30N 44°06' E 028°39'0 0.0
2017-Oct-25 17:00N 44°06' E 028°39'0 0.0
2017-Oct-25 16:30N 44°06' E 028°39'0 0.0
2017-Oct-25 16:00N 44°06' E 028°39'0 0.0
2017-Oct-25 15:30N 44°06' E 028°39'0 0.0
2017-Oct-25 15:00N 44°06' E 028°39'0 0.0
2017-Oct-25 14:30N 44°06' E 028°39'0 0.0
2017-Oct-25 14:00N 44°06' E 028°39'0 0.0
2017-Oct-25 13:30N 44°06' E 028°39'0 0.0
2017-Oct-25 13:00N 44°06' E 028°39'0 0.0
2017-Oct-25 12:30N 44°06' E 028°39'0 0.0
2017-Oct-25 12:00N 44°06' E 028°39'0 0.0
2017-Oct-25 11:30N 44°06' E 028°39'0 0.0
2017-Oct-25 11:00N 44°06' E 028°39'0 0.0
2017-Oct-25 10:30N 44°06' E 028°39'0 0.0
2017-Oct-25 10:00N 44°06' E 028°39'0 0.0
2017-Oct-25 09:30N 44°06' E 028°39'0 0.0
2017-Oct-25 09:00N 44°06' E 028°39'0 0.0
2017-Oct-25 08:30N 44°06' E 028°39'0 0.0
2017-Oct-25 08:00N 44°06' E 028°39'0 0.0
2017-Oct-25 07:30N 44°06' E 028°39'0 0.0
2017-Oct-25 07:00N 44°06' E 028°39'0 0.0
2017-Oct-25 06:30N 44°06' E 028°39'0 0.0
2017-Oct-25 06:00N 44°06' E 028°39'0 0.0
2017-Oct-25 05:30N 44°06' E 028°39'0 0.0
2017-Oct-25 05:00N 44°06' E 028°39'0 0.0
2017-Oct-25 04:30N 44°06' E 028°39'0 0.0
2017-Oct-25 04:00N 44°06' E 028°39'0 0.0
2017-Oct-25 03:30N 44°06' E 028°39'0 0.0
2017-Oct-25 03:00N 44°06' E 028°39'0 0.0
2017-Oct-25 02:30N 44°06' E 028°39'0 0.0
2017-Oct-25 02:00N 44°06' E 028°39'0 0.0
2017-Oct-25 01:30N 44°06' E 028°39'0 0.0
2017-Oct-25 01:00N 44°06' E 028°39'0 0.0
2017-Oct-25 00:30N 44°06' E 028°39'0 0.0
2017-Oct-25 00:00N 44°06' E 028°39'0 0.0
2017-Oct-24 23:30N 44°06' E 028°39'0 0.0
2017-Oct-24 23:00N 44°06' E 028°39'0 0.0
2017-Oct-24 22:30N 44°06' E 028°39'0 0.0
2017-Oct-24 22:00N 44°06' E 028°39'0 0.0
2017-Oct-24 21:30N 44°06' E 028°39'0 0.0
2017-Oct-24 21:00N 44°06' E 028°39'0 0.0
2017-Oct-24 20:30N 44°06' E 028°39'0 0.0
2017-Oct-24 20:00N 44°06' E 028°39'0 0.0
2017-Oct-24 19:30N 44°06' E 028°39'0 0.0
2017-Oct-24 19:00N 44°06' E 028°39'0 0.0
2017-Oct-24 18:30N 44°06' E 028°39'0 0.0
2017-Oct-24 18:00N 44°06' E 028°39'0 0.0
2017-Oct-24 17:30N 44°06' E 028°39'0 0.0
2017-Oct-24 17:00N 44°06' E 028°39'0 0.0
2017-Oct-24 16:30N 44°06' E 028°39'0 0.0
2017-Oct-24 16:00N 44°06' E 028°39'0 0.0
2017-Oct-24 15:30N 44°06' E 028°39'0 0.0
2017-Oct-24 15:00N 44°06' E 028°39'0 0.0
2017-Oct-24 14:30N 44°06' E 028°39'0 0.0
2017-Oct-24 14:00N 44°06' E 028°39'0 0.0
2017-Oct-24 13:30N 44°06' E 028°39'0 0.0
2017-Oct-24 13:00N 44°06' E 028°39'0 0.0
2017-Oct-24 12:30N 44°06' E 028°39'0 0.0
2017-Oct-24 12:00N 44°06' E 028°39'0 0.0
2017-Oct-24 11:30N 44°06' E 028°39'0 0.0
2017-Oct-24 11:00N 44°06' E 028°39'0 0.0
2017-Oct-24 10:30N 44°06' E 028°39'0 0.0
2017-Oct-24 10:00N 44°06' E 028°39'0 0.0
2017-Oct-24 09:30N 44°06' E 028°39'0 0.0
2017-Oct-24 09:00N 44°06' E 028°39'0 0.0
2017-Oct-24 08:30N 44°06' E 028°39'0 0.0
2017-Oct-24 08:00N 44°06' E 028°39'0 0.0
2017-Oct-24 07:30N 44°06' E 028°39'0 0.0
2017-Oct-24 07:00N 44°06' E 028°39'0 0.0
2017-Oct-24 06:30N 44°06' E 028°39'0 0.0
2017-Oct-24 06:00N 44°06' E 028°39'0 0.0
2017-Oct-24 05:30N 44°06' E 028°39'0 0.0
2017-Oct-24 05:00N 44°06' E 028°39'0 0.0
2017-Oct-24 04:30N 44°06' E 028°39'0 0.0
2017-Oct-24 04:00N 44°06' E 028°39'0 0.0
2017-Oct-24 03:30N 44°06' E 028°39'0 0.0
2017-Oct-24 03:00N 44°06' E 028°39'0 0.0
2017-Oct-24 02:30N 44°06' E 028°39'0 0.0
2017-Oct-24 02:00N 44°06' E 028°39'0 0.0
2017-Oct-24 01:30N 44°06' E 028°39'0 0.0
2017-Oct-24 01:00N 44°06' E 028°39'0 0.0
2017-Oct-24 00:30N 44°06' E 028°39'0 0.0
2017-Oct-24 00:00N 44°06' E 028°39'0 0.0
2017-Oct-23 23:30N 44°06' E 028°39'0 0.0
2017-Oct-23 23:00N 44°06' E 028°39'0 0.0
2017-Oct-23 22:30N 44°06' E 028°39'0 0.0
2017-Oct-23 22:00N 44°06' E 028°39'0 0.0
2017-Oct-23 21:30N 44°06' E 028°39'0 0.0
2017-Oct-23 21:00N 44°06' E 028°39'0 0.0
2017-Oct-23 20:30N 44°06' E 028°39'0 0.0
2017-Oct-23 20:00N 44°06' E 028°39'0 0.0
2017-Oct-23 19:30N 44°06' E 028°39'0 0.0
2017-Oct-23 19:00N 44°06' E 028°39'0 0.0
2017-Oct-23 18:30N 44°06' E 028°39'0 0.0
2017-Oct-23 18:00N 44°06' E 028°39'0 0.0
2017-Oct-23 17:30N 44°06' E 028°39'0 0.0
2017-Oct-23 17:00N 44°06' E 028°39'0 0.0
2017-Oct-23 16:30N 44°06' E 028°39'0 0.0
2017-Oct-23 16:00N 44°06' E 028°39'0 0.0
2017-Oct-23 15:30N 44°06' E 028°39'0 0.0
2017-Oct-23 15:00N 44°06' E 028°39'0 0.0
2017-Oct-23 14:30N 44°06' E 028°39'0 0.0
2017-Oct-23 14:00N 44°06' E 028°39'0 0.0
2017-Oct-23 13:30N 44°06' E 028°39'0 0.0
2017-Oct-23 13:00N 44°06' E 028°39'0 0.0
2017-Oct-23 12:30N 44°06' E 028°39'0 0.0
2017-Oct-23 12:00N 44°06' E 028°39'0 0.0
2017-Oct-23 11:30N 44°06' E 028°39'0 0.0
2017-Oct-23 11:00N 44°06' E 028°39'0 0.0
2017-Oct-23 10:30N 44°06' E 028°39'0 0.0
2017-Oct-23 10:00N 44°06' E 028°39'0 0.0
2017-Oct-23 09:30N 44°06' E 028°39'0 0.0
2017-Oct-23 09:00N 44°06' E 028°39'0 0.0
2017-Oct-23 08:30N 44°06' E 028°39'0 0.0
2017-Oct-23 08:00N 44°06' E 028°39'0 0.0
2017-Oct-23 07:30N 44°06' E 028°39'0 0.0
2017-Oct-23 07:00N 44°06' E 028°39'0 0.0
2017-Oct-23 06:30N 44°06' E 028°39'0 0.0
2017-Oct-23 06:00N 44°06' E 028°39'0 0.0
2017-Oct-23 05:30N 44°06' E 028°39'0 0.0
2017-Oct-23 05:00N 44°06' E 028°39'0 0.0
2017-Oct-23 04:30N 44°06' E 028°39'0 0.0
2017-Oct-23 04:00N 44°06' E 028°39'0 0.0
2017-Oct-23 03:30N 44°06' E 028°39'0 0.0
2017-Oct-23 03:00N 44°06' E 028°39'0 0.0
2017-Oct-23 02:30N 44°06' E 028°39'0 0.0
2017-Oct-23 02:00N 44°06' E 028°39'0 0.0
2017-Oct-23 01:30N 44°06' E 028°39'0 0.0
2017-Oct-23 01:00N 44°06' E 028°39'0 0.0
2017-Oct-23 00:30N 44°06' E 028°39'0 0.0
2017-Oct-23 00:00N 44°06' E 028°39'0 0.0
2017-Oct-22 23:30N 44°06' E 028°39'0 0.0
2017-Oct-22 23:00N 44°06' E 028°39'0 0.0
2017-Oct-22 22:30N 44°06' E 028°39'0 0.0
2017-Oct-22 22:00N 44°06' E 028°39'0 0.0
2017-Oct-22 21:30N 44°06' E 028°39'0 0.0
2017-Oct-22 21:00N 44°06' E 028°39'0 0.0
2017-Oct-22 20:30N 44°06' E 028°39'0 0.0
2017-Oct-22 20:00N 44°06' E 028°39'0 0.0
2017-Oct-22 19:30N 44°06' E 028°39'0 0.0
2017-Oct-22 19:00N 44°06' E 028°39'0 0.0
2017-Oct-22 18:30N 44°06' E 028°39'0 0.0
2017-Oct-22 18:00N 44°06' E 028°39'0 0.0
2017-Oct-22 17:30N 44°06' E 028°39'0 0.1
2017-Oct-22 17:00N 44°06' E 028°39'0 0.0
2017-Oct-22 16:30N 44°06' E 028°39'0 0.0
2017-Oct-22 16:00N 44°06' E 028°39'0 0.0
2017-Oct-22 15:30N 44°06' E 028°39'0 0.0
2017-Oct-22 15:00N 44°06' E 028°39'1 1.4
2017-Oct-22 14:30N 44°06' E 028°38'1 1.7
2017-Oct-22 14:00N 44°06' E 028°37'2 3.9
2017-Oct-22 13:30N 44°06' E 028°35'7 5.4
2017-Oct-22 12:11N 44°09' E 028°26'1 6.5
2017-Oct-22 12:00N 44°10' E 028°25'3 6.3
2017-Oct-22 11:31N 44°13' E 028°23'3 6.2
2017-Oct-22 11:00N 44°15' E 028°20'3 6.3
2017-Oct-22 10:30N 44°15' E 028°15'3 6.3
2017-Oct-22 09:58N 44°16' E 028°11'3 6.3
2017-Oct-22 09:29N 44°16' E 028°07'7 1.8
2017-Oct-22 05:33N 44°22' E 028°02'  
Track history (hours):
 
Tides and Currents Weather Stations Pressure Air Temp Water Temp Dewpoint Dewpoint Depression Visibility Wind Speed Wind Dir Waves Ship Positions

Pezhoto

Last reported at 2017-Oct-26 08:20 UTC. Time now 2017-Dec-14 08:24 UTC.
Position N 44°17' E 028°05'.
Warning: this ship's position is 49 days out of date.

Length 80 m.

Type: Ship (hazmat cat D). MMSI: 207072277.

Date/timePositionNaut miles runAvg speedWind from/ knotsBaromVisibWave heightAir tempDewpointWater temp
2017-Oct-26 08:20N 44°17' E 028°05'2 6.3
2017-Oct-26 08:00N 44°16' E 028°08'3 6.5
2017-Oct-26 07:30N 44°16' E 028°12'3 6.6
2017-Oct-26 07:00N 44°15' E 028°17'3 6.5
2017-Oct-26 06:30N 44°15' E 028°21'4 6.7
2017-Oct-26 05:59N 44°11' E 028°24'8 5.9
2017-Oct-26 04:34N 44°06' E 028°33'0 6.8
2017-Oct-26 04:29N 44°06' E 028°33'3 5.9
2017-Oct-26 04:00N 44°06' E 028°37'0 0.6
2017-Oct-26 03:30N 44°06' E 028°38'0 0.1
2017-Oct-26 03:00N 44°06' E 028°38'1 2.2
2017-Oct-26 02:30N 44°06' E 028°39'0 0.0
2017-Oct-26 02:00N 44°06' E 028°39'0 0.0
2017-Oct-26 01:30N 44°06' E 028°39'0 0.0
2017-Oct-26 01:00N 44°06' E 028°39'0 0.0
2017-Oct-26 00:30N 44°06' E 028°39'0 0.0
2017-Oct-26 00:00N 44°06' E 028°39'0 0.0
2017-Oct-25 23:30N 44°06' E 028°39'0 0.0
2017-Oct-25 23:00N 44°06' E 028°39'0 0.0
2017-Oct-25 22:30N 44°06' E 028°39'0 0.0
2017-Oct-25 22:00N 44°06' E 028°39'0 0.0
2017-Oct-25 21:30N 44°06' E 028°39'0 0.0
2017-Oct-25 21:00N 44°06' E 028°39'0 0.0
2017-Oct-25 20:30N 44°06' E 028°39'0 0.0
2017-Oct-25 20:00N 44°06' E 028°39'0 0.0
2017-Oct-25 19:30N 44°06' E 028°39'0 0.0
2017-Oct-25 19:00N 44°06' E 028°39'0 0.0
2017-Oct-25 18:30N 44°06' E 028°39'0 0.0
2017-Oct-25 18:00N 44°06' E 028°39'0 0.0
2017-Oct-25 17:30N 44°06' E 028°39'0 0.0
2017-Oct-25 17:00N 44°06' E 028°39'0 0.0
2017-Oct-25 16:30N 44°06' E 028°39'0 0.0
2017-Oct-25 16:00N 44°06' E 028°39'0 0.0
2017-Oct-25 15:30N 44°06' E 028°39'0 0.0
2017-Oct-25 15:00N 44°06' E 028°39'0 0.0
2017-Oct-25 14:30N 44°06' E 028°39'0 0.0
2017-Oct-25 14:00N 44°06' E 028°39'0 0.0
2017-Oct-25 13:30N 44°06' E 028°39'0 0.0
2017-Oct-25 13:00N 44°06' E 028°39'0 0.0
2017-Oct-25 12:30N 44°06' E 028°39'0 0.0
2017-Oct-25 12:00N 44°06' E 028°39'0 0.0
2017-Oct-25 11:30N 44°06' E 028°39'0 0.0
2017-Oct-25 11:00N 44°06' E 028°39'0 0.0
2017-Oct-25 10:30N 44°06' E 028°39'0 0.0
2017-Oct-25 10:00N 44°06' E 028°39'0 0.0
2017-Oct-25 09:30N 44°06' E 028°39'0 0.0
2017-Oct-25 09:00N 44°06' E 028°39'0 0.0
2017-Oct-25 08:30N 44°06' E 028°39'0 0.0
2017-Oct-25 08:00N 44°06' E 028°39'0 0.0
2017-Oct-25 07:30N 44°06' E 028°39'0 0.0
2017-Oct-25 07:00N 44°06' E 028°39'0 0.0
2017-Oct-25 06:30N 44°06' E 028°39'0 0.0
2017-Oct-25 06:00N 44°06' E 028°39'0 0.0
2017-Oct-25 05:30N 44°06' E 028°39'0 0.0
2017-Oct-25 05:00N 44°06' E 028°39'0 0.0
2017-Oct-25 04:30N 44°06' E 028°39'0 0.0
2017-Oct-25 04:00N 44°06' E 028°39'0 0.0
2017-Oct-25 03:30N 44°06' E 028°39'0 0.0
2017-Oct-25 03:00N 44°06' E 028°39'0 0.0
2017-Oct-25 02:30N 44°06' E 028°39'0 0.0
2017-Oct-25 02:00N 44°06' E 028°39'0 0.0
2017-Oct-25 01:30N 44°06' E 028°39'0 0.0
2017-Oct-25 01:00N 44°06' E 028°39'0 0.0
2017-Oct-25 00:30N 44°06' E 028°39'0 0.0
2017-Oct-25 00:00N 44°06' E 028°39'0 0.0
2017-Oct-24 23:30N 44°06' E 028°39'0 0.0
2017-Oct-24 23:00N 44°06' E 028°39'0 0.0
2017-Oct-24 22:30N 44°06' E 028°39'0 0.0
2017-Oct-24 22:00N 44°06' E 028°39'0 0.0
2017-Oct-24 21:30N 44°06' E 028°39'0 0.0
2017-Oct-24 21:00N 44°06' E 028°39'0 0.0
2017-Oct-24 20:30N 44°06' E 028°39'0 0.0
2017-Oct-24 20:00N 44°06' E 028°39'0 0.0
2017-Oct-24 19:30N 44°06' E 028°39'0 0.0
2017-Oct-24 19:00N 44°06' E 028°39'0 0.0
2017-Oct-24 18:30N 44°06' E 028°39'0 0.0
2017-Oct-24 18:00N 44°06' E 028°39'0 0.0
2017-Oct-24 17:30N 44°06' E 028°39'0 0.0
2017-Oct-24 17:00N 44°06' E 028°39'0 0.0
2017-Oct-24 16:30N 44°06' E 028°39'0 0.0
2017-Oct-24 16:00N 44°06' E 028°39'0 0.0
2017-Oct-24 15:30N 44°06' E 028°39'0 0.0
2017-Oct-24 15:00N 44°06' E 028°39'0 0.0
2017-Oct-24 14:30N 44°06' E 028°39'0 0.0
2017-Oct-24 14:00N 44°06' E 028°39'0 0.0
2017-Oct-24 13:30N 44°06' E 028°39'0 0.0
2017-Oct-24 13:00N 44°06' E 028°39'0 0.0
2017-Oct-24 12:30N 44°06' E 028°39'0 0.0
2017-Oct-24 12:00N 44°06' E 028°39'0 0.0
2017-Oct-24 11:30N 44°06' E 028°39'0 0.0
2017-Oct-24 11:00N 44°06' E 028°39'0 0.0
2017-Oct-24 10:30N 44°06' E 028°39'0 0.0
2017-Oct-24 10:00N 44°06' E 028°39'0 0.0
2017-Oct-24 09:30N 44°06' E 028°39'0 0.0
2017-Oct-24 09:00N 44°06' E 028°39'0 0.0
2017-Oct-24 08:30N 44°06' E 028°39'0 0.0
2017-Oct-24 08:00N 44°06' E 028°39'0 0.0
2017-Oct-24 07:30N 44°06' E 028°39'0 0.0
2017-Oct-24 07:00N 44°06' E 028°39'0 0.0
2017-Oct-24 06:30N 44°06' E 028°39'0 0.0
2017-Oct-24 06:00N 44°06' E 028°39'0 0.0
2017-Oct-24 05:30N 44°06' E 028°39'0 0.0
2017-Oct-24 05:00N 44°06' E 028°39'0 0.0
2017-Oct-24 04:30N 44°06' E 028°39'0 0.0
2017-Oct-24 04:00N 44°06' E 028°39'0 0.0
2017-Oct-24 03:30N 44°06' E 028°39'0 0.0
2017-Oct-24 03:00N 44°06' E 028°39'0 0.0
2017-Oct-24 02:30N 44°06' E 028°39'0 0.0
2017-Oct-24 02:00N 44°06' E 028°39'0 0.0
2017-Oct-24 01:30N 44°06' E 028°39'0 0.0
2017-Oct-24 01:00N 44°06' E 028°39'0 0.0
2017-Oct-24 00:30N 44°06' E 028°39'0 0.0
2017-Oct-24 00:00N 44°06' E 028°39'0 0.0
2017-Oct-23 23:30N 44°06' E 028°39'0 0.0
2017-Oct-23 23:00N 44°06' E 028°39'0 0.0
2017-Oct-23 22:30N 44°06' E 028°39'0 0.0
2017-Oct-23 22:00N 44°06' E 028°39'0 0.0
2017-Oct-23 21:30N 44°06' E 028°39'0 0.0
2017-Oct-23 21:00N 44°06' E 028°39'0 0.0
2017-Oct-23 20:30N 44°06' E 028°39'0 0.0
2017-Oct-23 20:00N 44°06' E 028°39'0 0.0
2017-Oct-23 19:30N 44°06' E 028°39'0 0.0
2017-Oct-23 19:00N 44°06' E 028°39'0 0.0
2017-Oct-23 18:30N 44°06' E 028°39'0 0.0
2017-Oct-23 18:00N 44°06' E 028°39'0 0.0
2017-Oct-23 17:30N 44°06' E 028°39'0 0.0
2017-Oct-23 17:00N 44°06' E 028°39'0 0.0
2017-Oct-23 16:30N 44°06' E 028°39'0 0.0
2017-Oct-23 16:00N 44°06' E 028°39'0 0.0
2017-Oct-23 15:30N 44°06' E 028°39'0 0.0
2017-Oct-23 15:00N 44°06' E 028°39'0 0.0
2017-Oct-23 14:30N 44°06' E 028°39'0 0.0
2017-Oct-23 14:00N 44°06' E 028°39'0 0.0
2017-Oct-23 13:30N 44°06' E 028°39'0 0.0
2017-Oct-23 13:00N 44°06' E 028°39'0 0.0
2017-Oct-23 12:30N 44°06' E 028°39'0 0.0
2017-Oct-23 12:00N 44°06' E 028°39'0 0.0
2017-Oct-23 11:30N 44°06' E 028°39'0 0.0
2017-Oct-23 11:00N 44°06' E 028°39'0 0.0
2017-Oct-23 10:30N 44°06' E 028°39'0 0.0
2017-Oct-23 10:00N 44°06' E 028°39'0 0.0
2017-Oct-23 09:30N 44°06' E 028°39'0 0.0
2017-Oct-23 09:00N 44°06' E 028°39'0 0.0
2017-Oct-23 08:30N 44°06' E 028°39'0 0.0
2017-Oct-23 08:00N 44°06' E 028°39'0 0.0
2017-Oct-23 07:30N 44°06' E 028°39'0 0.0
2017-Oct-23 07:00N 44°06' E 028°39'0 0.0
2017-Oct-23 06:30N 44°06' E 028°39'0 0.0
2017-Oct-23 06:00N 44°06' E 028°39'0 0.0
2017-Oct-23 05:30N 44°06' E 028°39'0 0.0
2017-Oct-23 05:00N 44°06' E 028°39'0 0.0
2017-Oct-23 04:30N 44°06' E 028°39'0 0.0
2017-Oct-23 04:00N 44°06' E 028°39'0 0.0
2017-Oct-23 03:30N 44°06' E 028°39'0 0.0
2017-Oct-23 03:00N 44°06' E 028°39'0 0.0
2017-Oct-23 02:30N 44°06' E 028°39'0 0.0
2017-Oct-23 02:00N 44°06' E 028°39'0 0.0
2017-Oct-23 01:30N 44°06' E 028°39'0 0.0
2017-Oct-23 01:00N 44°06' E 028°39'0 0.0
2017-Oct-23 00:30N 44°06' E 028°39'0 0.0
2017-Oct-23 00:00N 44°06' E 028°39'0 0.0
2017-Oct-22 23:30N 44°06' E 028°39'0 0.0
2017-Oct-22 23:00N 44°06' E 028°39'0 0.0
2017-Oct-22 22:30N 44°06' E 028°39'0 0.0
2017-Oct-22 22:00N 44°06' E 028°39'0 0.0
2017-Oct-22 21:30N 44°06' E 028°39'0 0.0
2017-Oct-22 21:00N 44°06' E 028°39'0 0.0
2017-Oct-22 20:30N 44°06' E 028°39'0 0.0
2017-Oct-22 20:00N 44°06' E 028°39'0 0.0
2017-Oct-22 19:30N 44°06' E 028°39'0 0.0
2017-Oct-22 19:00N 44°06' E 028°39'0 0.0
2017-Oct-22 18:30N 44°06' E 028°39'0 0.0
2017-Oct-22 18:00N 44°06' E 028°39'0 0.0
2017-Oct-22 17:30N 44°06' E 028°39'0 0.1
2017-Oct-22 17:00N 44°06' E 028°39'0 0.0
2017-Oct-22 16:30N 44°06' E 028°39'0 0.0
2017-Oct-22 16:00N 44°06' E 028°39'0 0.0
2017-Oct-22 15:30N 44°06' E 028°39'0 0.0
2017-Oct-22 15:00N 44°06' E 028°39'1 1.4
2017-Oct-22 14:30N 44°06' E 028°38'1 1.7
2017-Oct-22 14:00N 44°06' E 028°37'2 3.9
2017-Oct-22 13:30N 44°06' E 028°35'7 5.4
2017-Oct-22 12:11N 44°09' E 028°26'1 6.5
2017-Oct-22 12:00N 44°10' E 028°25'3 6.3
2017-Oct-22 11:31N 44°13' E 028°23'3 6.2
2017-Oct-22 11:00N 44°15' E 028°20'3 6.3
2017-Oct-22 10:30N 44°15' E 028°15'3 6.3
2017-Oct-22 09:58N 44°16' E 028°11'3 6.3
2017-Oct-22 09:29N 44°16' E 028°07'7 1.8
2017-Oct-22 05:33N 44°22' E 028°02'  

Dump ship's entire track history